sensor_id;sensor_type;location;lat;lon;timestamp;pressure;altitude;pressure_sealevel;temperature;humidity
50770;BME280;36740;48.698;11.472;2024-02-26T00:02:06;95732.97;;;1.94;99.21
50770;BME280;36740;48.698;11.472;2024-02-26T00:04:52;95740.28;;;1.88;99.84
50770;BME280;36740;48.698;11.472;2024-02-26T00:07:38;95733.75;;;1.85;100.00
50770;BME280;36740;48.698;11.472;2024-02-26T00:10:25;95734.78;;;1.82;100.00
50770;BME280;36740;48.698;11.472;2024-02-26T00:13:11;95738.28;;;1.91;100.00
50770;BME280;36740;48.698;11.472;2024-02-26T00:15:57;95726.00;;;1.77;100.00
50770;BME280;36740;48.698;11.472;2024-02-26T00:18:43;95731.44;;;1.72;100.00
50770;BME280;36740;48.698;11.472;2024-02-26T00:21:28;95731.16;;;1.65;100.00
50770;BME280;36740;48.698;11.472;2024-02-26T00:24:14;95738.19;;;1.62;100.00
50770;BME280;36740;48.698;11.472;2024-02-26T00:27:00;95726.88;;;1.66;100.00
50770;BME280;36740;48.698;11.472;2024-02-26T00:29:46;95733.13;;;1.62;100.00
50770;BME280;36740;48.698;11.472;2024-02-26T00:32:31;95728.44;;;1.57;100.00
50770;BME280;36740;48.698;11.472;2024-02-26T00:35:17;95727.47;;;1.49;100.00
50770;BME280;36740;48.698;11.472;2024-02-26T00:38:06;95728.28;;;1.49;100.00
50770;BME280;36740;48.698;11.472;2024-02-26T00:40:52;95724.69;;;1.52;100.00
50770;BME280;36740;48.698;11.472;2024-02-26T00:43:38;95728.22;;;1.39;100.00
50770;BME280;36740;48.698;11.472;2024-02-26T00:46:25;95714.28;;;1.45;100.00
50770;BME280;36740;48.698;11.472;2024-02-26T00:49:11;95720.28;;;1.44;100.00
50770;BME280;36740;48.698;11.472;2024-02-26T00:51:57;95730.91;;;1.47;99.78
50770;BME280;36740;48.698;11.472;2024-02-26T00:54:42;95721.19;;;1.43;99.25
50770;BME280;36740;48.698;11.472;2024-02-26T00:57:28;95722.31;;;1.29;99.01
50770;BME280;36740;48.698;11.472;2024-02-26T01:00:14;95717.19;;;1.19;100.00
50770;BME280;36740;48.698;11.472;2024-02-26T01:03:00;95716.84;;;1.24;100.00
50770;BME280;36740;48.698;11.472;2024-02-26T01:05:46;95710.41;;;1.20;100.00
50770;BME280;36740;48.698;11.472;2024-02-26T01:08:32;95710.31;;;1.21;100.00
50770;BME280;36740;48.698;11.472;2024-02-26T01:11:18;95715.09;;;1.24;100.00
50770;BME280;36740;48.698;11.472;2024-02-26T01:14:03;95708.06;;;1.07;100.00
50770;BME280;36740;48.698;11.472;2024-02-26T01:16:49;95708.44;;;1.02;100.00
50770;BME280;36740;48.698;11.472;2024-02-26T01:19:35;95712.94;;;0.99;100.00
50770;BME280;36740;48.698;11.472;2024-02-26T01:22:21;95711.72;;;0.93;100.00
50770;BME280;36740;48.698;11.472;2024-02-26T01:25:07;95714.72;;;0.87;100.00
50770;BME280;36740;48.698;11.472;2024-02-26T01:27:53;95711.94;;;0.90;100.00
50770;BME280;36740;48.698;11.472;2024-02-26T01:30:39;95715.03;;;0.94;100.00
50770;BME280;36740;48.698;11.472;2024-02-26T01:33:26;95719.47;;;1.01;100.00
50770;BME280;36740;48.698;11.472;2024-02-26T01:36:11;95713.66;;;1.10;100.00
50770;BME280;36740;48.698;11.472;2024-02-26T01:38:57;95717.56;;;1.15;100.00
50770;BME280;36740;48.698;11.472;2024-02-26T01:41:43;95719.59;;;1.21;100.00
50770;BME280;36740;48.698;11.472;2024-02-26T01:44:28;95721.69;;;1.16;100.00
50770;BME280;36740;48.698;11.472;2024-02-26T01:47:14;95723.84;;;1.20;100.00
50770;BME280;36740;48.698;11.472;2024-02-26T01:50:01;95712.53;;;1.15;100.00
50770;BME280;36740;48.698;11.472;2024-02-26T01:52:47;95711.50;;;1.17;100.00
50770;BME280;36740;48.698;11.472;2024-02-26T01:55:33;95705.06;;;1.13;100.00
50770;BME280;36740;48.698;11.472;2024-02-26T01:58:19;95702.00;;;1.09;100.00
50770;BME280;36740;48.698;11.472;2024-02-26T02:01:05;95697.97;;;1.07;100.00
50770;BME280;36740;48.698;11.472;2024-02-26T02:03:51;95703.84;;;1.07;100.00
50770;BME280;36740;48.698;11.472;2024-02-26T02:06:37;95712.94;;;0.99;100.00
50770;BME280;36740;48.698;11.472;2024-02-26T02:09:23;95714.78;;;0.97;100.00
50770;BME280;36740;48.698;11.472;2024-02-26T02:12:10;95712.19;;;0.87;100.00
50770;BME280;36740;48.698;11.472;2024-02-26T02:14:56;95707.19;;;0.76;100.00
50770;BME280;36740;48.698;11.472;2024-02-26T02:17:42;95706.84;;;0.80;100.00
50770;BME280;36740;48.698;11.472;2024-02-26T02:20:34;95711.94;;;0.90;100.00
50770;BME280;36740;48.698;11.472;2024-02-26T02:23:20;95710.47;;;0.87;100.00
50770;BME280;36740;48.698;11.472;2024-02-26T02:26:06;95701.66;;;0.82;100.00
50770;BME280;36740;48.698;11.472;2024-02-26T02:28:52;95698.16;;;0.73;100.00
50770;BME280;36740;48.698;11.472;2024-02-26T02:31:38;95690.03;;;0.69;100.00
50770;BME280;36740;48.698;11.472;2024-02-26T02:34:24;95686.69;;;0.69;100.00
50770;BME280;36740;48.698;11.472;2024-02-26T02:37:10;95682.50;;;0.79;100.00
50770;BME280;36740;48.698;11.472;2024-02-26T02:39:56;95689.97;;;0.81;100.00
50770;BME280;36740;48.698;11.472;2024-02-26T02:42:43;95677.91;;;0.63;100.00
50770;BME280;36740;48.698;11.472;2024-02-26T02:45:29;95681.78;;;0.67;100.00
50770;BME280;36740;48.698;11.472;2024-02-26T02:48:14;95674.28;;;0.77;100.00
50770;BME280;36740;48.698;11.472;2024-02-26T02:51:00;95679.50;;;0.85;100.00
50770;BME280;36740;48.698;11.472;2024-02-26T02:53:46;95690.16;;;0.89;100.00
50770;BME280;36740;48.698;11.472;2024-02-26T02:56:32;95690.09;;;1.00;100.00
50770;BME280;36740;48.698;11.472;2024-02-26T02:59:17;95704.28;;;1.13;100.00
50770;BME280;36740;48.698;11.472;2024-02-26T03:02:03;95706.78;;;1.34;100.00
50770;BME280;36740;48.698;11.472;2024-02-26T03:04:50;95703.63;;;1.41;100.00
50770;BME280;36740;48.698;11.472;2024-02-26T03:07:36;95681.97;;;1.39;100.00
50770;BME280;36740;48.698;11.472;2024-02-26T03:10:22;95684.88;;;1.34;100.00
50770;BME280;36740;48.698;11.472;2024-02-26T03:13:07;95679.75;;;1.24;100.00
50770;BME280;36740;48.698;11.472;2024-02-26T03:15:53;95681.88;;;1.19;100.00
50770;BME280;36740;48.698;11.472;2024-02-26T03:18:39;95682.16;;;1.26;100.00
50770;BME280;36740;48.698;11.472;2024-02-26T03:21:28;95681.66;;;1.32;100.00
50770;BME280;36740;48.698;11.472;2024-02-26T03:24:14;95677.25;;;1.55;100.00
50770;BME280;36740;48.698;11.472;2024-02-26T03:27:00;95683.28;;;1.64;100.00
50770;BME280;36740;48.698;11.472;2024-02-26T03:29:45;95689.53;;;1.70;100.00
50770;BME280;36740;48.698;11.472;2024-02-26T03:32:31;95689.91;;;1.65;100.00
50770;BME280;36740;48.698;11.472;2024-02-26T03:35:17;95681.25;;;1.58;100.00
50770;BME280;36740;48.698;11.472;2024-02-26T03:38:03;95684.06;;;1.64;100.00
50770;BME280;36740;48.698;11.472;2024-02-26T03:40:49;95679.78;;;1.65;100.00
50770;BME280;36740;48.698;11.472;2024-02-26T03:43:34;95680.88;;;1.62;100.00
50770;BME280;36740;48.698;11.472;2024-02-26T03:46:20;95692.59;;;1.73;100.00
50770;BME280;36740;48.698;11.472;2024-02-26T03:49:06;95691.38;;;1.68;100.00
50770;BME280;36740;48.698;11.472;2024-02-26T03:51:52;95684.09;;;1.74;100.00
50770;BME280;36740;48.698;11.472;2024-02-26T03:54:37;95675.94;;;1.61;100.00
50770;BME280;36740;48.698;11.472;2024-02-26T03:57:23;95673.53;;;1.59;100.00
50770;BME280;36740;48.698;11.472;2024-02-26T04:00:09;95682.78;;;1.70;100.00
50770;BME280;36740;48.698;11.472;2024-02-26T04:02:55;95679.03;;;1.74;100.00
50770;BME280;36740;48.698;11.472;2024-02-26T04:05:41;95669.22;;;1.81;100.00
50770;BME280;36740;48.698;11.472;2024-02-26T04:08:27;95685.88;;;1.83;100.00
50770;BME280;36740;48.698;11.472;2024-02-26T04:11:13;95687.75;;;1.91;100.00
50770;BME280;36740;48.698;11.472;2024-02-26T04:14:02;95697.06;;;1.91;100.00
50770;BME280;36740;48.698;11.472;2024-02-26T04:16:49;95693.69;;;1.80;100.00
50770;BME280;36740;48.698;11.472;2024-02-26T04:19:37;95675.06;;;1.72;100.00
50770;BME280;36740;48.698;11.472;2024-02-26T04:22:23;95693.28;;;1.75;100.00
50770;BME280;36740;48.698;11.472;2024-02-26T04:25:09;95700.38;;;1.91;100.00
50770;BME280;36740;48.698;11.472;2024-02-26T04:27:55;95704.91;;;1.97;100.00
50770;BME280;36740;48.698;11.472;2024-02-26T04:30:41;95711.06;;;1.95;100.00
50770;BME280;36740;48.698;11.472;2024-02-26T04:33:27;95709.03;;;1.89;100.00
50770;BME280;36740;48.698;11.472;2024-02-26T04:36:14;95715.94;;;1.87;100.00
50770;BME280;36740;48.698;11.472;2024-02-26T04:39:01;95718.19;;;1.90;100.00
50770;BME280;36740;48.698;11.472;2024-02-26T04:41:46;95710.22;;;1.94;100.00
50770;BME280;36740;48.698;11.472;2024-02-26T04:44:33;95713.56;;;1.95;100.00
50770;BME280;36740;48.698;11.472;2024-02-26T04:47:18;95712.09;;;1.92;100.00
50770;BME280;36740;48.698;11.472;2024-02-26T04:50:05;95717.16;;;1.92;100.00
50770;BME280;36740;48.698;11.472;2024-02-26T04:52:51;95718.50;;;1.96;100.00
50770;BME280;36740;48.698;11.472;2024-02-26T04:55:36;95714.91;;;1.99;100.00
50770;BME280;36740;48.698;11.472;2024-02-26T04:58:22;95720.22;;;1.96;100.00
50770;BME280;36740;48.698;11.472;2024-02-26T05:01:08;95722.53;;;2.09;100.00
50770;BME280;36740;48.698;11.472;2024-02-26T05:03:55;95724.38;;;2.07;100.00
50770;BME280;36740;48.698;11.472;2024-02-26T05:06:41;95728.00;;;2.14;100.00
50770;BME280;36740;48.698;11.472;2024-02-26T05:09:27;95732.66;;;2.18;100.00
50770;BME280;36740;48.698;11.472;2024-02-26T05:12:12;95724.81;;;2.21;100.00
50770;BME280;36740;48.698;11.472;2024-02-26T05:14:58;95728.56;;;2.27;100.00
50770;BME280;36740;48.698;11.472;2024-02-26T05:17:44;95729.63;;;2.25;100.00
50770;BME280;36740;48.698;11.472;2024-02-26T05:20:30;95724.81;;;2.21;100.00
50770;BME280;36740;48.698;11.472;2024-02-26T05:23:20;95715.59;;;2.11;100.00
50770;BME280;36740;48.698;11.472;2024-02-26T05:26:05;95709.75;;;2.10;100.00
50770;BME280;36740;48.698;11.472;2024-02-26T05:28:51;95712.31;;;2.20;100.00
50770;BME280;36740;48.698;11.472;2024-02-26T05:31:37;95710.13;;;2.06;100.00
50770;BME280;36740;48.698;11.472;2024-02-26T05:34:23;95710.16;;;2.15;100.00
50770;BME280;36740;48.698;11.472;2024-02-26T05:37:08;95707.75;;;2.14;100.00
50770;BME280;36740;48.698;11.472;2024-02-26T05:39:54;95712.56;;;2.17;100.00
50770;BME280;36740;48.698;11.472;2024-02-26T05:42:40;95708.31;;;2.17;100.00
50770;BME280;36740;48.698;11.472;2024-02-26T05:45:26;95720.94;;;2.17;100.00
50770;BME280;36740;48.698;11.472;2024-02-26T05:48:11;95726.03;;;2.27;100.00
50770;BME280;36740;48.698;11.472;2024-02-26T05:50:57;95725.75;;;2.20;100.00
50770;BME280;36740;48.698;11.472;2024-02-26T05:53:44;95735.69;;;2.12;100.00
50770;BME280;36740;48.698;11.472;2024-02-26T05:56:32;95745.19;;;2.20;100.00
50770;BME280;36740;48.698;11.472;2024-02-26T05:59:18;95743.81;;;2.16;100.00
50770;BME280;36740;48.698;11.472;2024-02-26T06:02:04;95749.94;;;2.13;100.00
50770;BME280;36740;48.698;11.472;2024-02-26T06:04:50;95756.59;;;2.14;100.00
50770;BME280;36740;48.698;11.472;2024-02-26T06:07:36;95760.59;;;2.17;100.00
50770;BME280;36740;48.698;11.472;2024-02-26T06:10:26;95760.72;;;2.15;100.00
50770;BME280;36740;48.698;11.472;2024-02-26T06:13:12;95766.44;;;2.17;100.00
50770;BME280;36740;48.698;11.472;2024-02-26T06:15:58;95762.59;;;2.13;100.00
50770;BME280;36740;48.698;11.472;2024-02-26T06:18:43;95765.66;;;2.17;100.00
50770;BME280;36740;48.698;11.472;2024-02-26T06:21:29;95772.03;;;2.21;100.00
50770;BME280;36740;48.698;11.472;2024-02-26T06:24:15;95771.38;;;2.19;100.00
50770;BME280;36740;48.698;11.472;2024-02-26T06:27:01;95778.84;;;2.20;100.00
50770;BME280;36740;48.698;11.472;2024-02-26T06:29:47;95779.22;;;2.16;100.00
50770;BME280;36740;48.698;11.472;2024-02-26T06:32:32;95780.41;;;2.12;100.00
50770;BME280;36740;48.698;11.472;2024-02-26T06:35:18;95775.91;;;2.15;100.00
50770;BME280;36740;48.698;11.472;2024-02-26T06:38:04;95786.59;;;2.29;100.00
50770;BME280;36740;48.698;11.472;2024-02-26T06:40:50;95784.19;;;2.27;100.00
50770;BME280;36740;48.698;11.472;2024-02-26T06:43:36;95804.94;;;2.31;100.00
50770;BME280;36740;48.698;11.472;2024-02-26T06:46:22;95806.41;;;2.24;100.00
50770;BME280;36740;48.698;11.472;2024-02-26T06:49:08;95808.91;;;2.14;100.00
50770;BME280;36740;48.698;11.472;2024-02-26T06:51:54;95803.84;;;2.14;100.00
50770;BME280;36740;48.698;11.472;2024-02-26T06:54:40;95812.25;;;2.24;100.00
50770;BME280;36740;48.698;11.472;2024-02-26T06:57:27;95806.31;;;2.35;100.00
50770;BME280;36740;48.698;11.472;2024-02-26T07:00:13;95811.19;;;2.57;100.00
50770;BME280;36740;48.698;11.472;2024-02-26T07:03:01;95813.97;;;2.54;100.00
50770;BME280;36740;48.698;11.472;2024-02-26T07:05:47;95818.50;;;2.70;100.00
50770;BME280;36740;48.698;11.472;2024-02-26T07:08:33;95824.69;;;2.87;100.00
50770;BME280;36740;48.698;11.472;2024-02-26T07:11:19;95821.22;;;2.88;100.00
50770;BME280;36740;48.698;11.472;2024-02-26T07:14:05;95816.69;;;2.92;100.00
50770;BME280;36740;48.698;11.472;2024-02-26T07:16:51;95818.28;;;2.83;100.00
50770;BME280;36740;48.698;11.472;2024-02-26T07:19:36;95821.22;;;2.88;100.00
50770;BME280;36740;48.698;11.472;2024-02-26T07:22:22;95824.44;;;3.10;100.00
50770;BME280;36740;48.698;11.472;2024-02-26T07:25:08;95821.91;;;3.20;100.00
50770;BME280;36740;48.698;11.472;2024-02-26T07:27:57;95819.75;;;3.25;100.00
50770;BME280;36740;48.698;11.472;2024-02-26T07:30:43;95827.22;;;3.36;100.00
50770;BME280;36740;48.698;11.472;2024-02-26T07:33:29;95842.00;;;3.80;99.31
50770;BME280;36740;48.698;11.472;2024-02-26T07:36:15;95840.13;;;3.82;98.04
50770;BME280;36740;48.698;11.472;2024-02-26T07:39:00;95834.03;;;4.12;96.67
50770;BME280;36740;48.698;11.472;2024-02-26T07:41:47;95831.19;;;4.25;96.20
50770;BME280;36740;48.698;11.472;2024-02-26T07:44:35;95841.91;;;4.09;95.17
50770;BME280;36740;48.698;11.472;2024-02-26T07:47:21;95845.91;;;4.21;95.21
50770;BME280;36740;48.698;11.472;2024-02-26T07:50:08;95836.34;;;4.05;94.45
50770;BME280;36740;48.698;11.472;2024-02-26T07:52:54;95833.41;;;4.00;93.41
50770;BME280;36740;48.698;11.472;2024-02-26T07:55:40;95837.75;;;4.28;94.07
50770;BME280;36740;48.698;11.472;2024-02-26T07:58:26;95835.72;;;4.31;93.11
50770;BME280;36740;48.698;11.472;2024-02-26T08:01:14;95826.75;;;4.37;93.49
50770;BME280;36740;48.698;11.472;2024-02-26T08:04:00;95825.03;;;4.37;91.63
50770;BME280;36740;48.698;11.472;2024-02-26T08:06:46;95823.56;;;4.35;91.33
50770;BME280;36740;48.698;11.472;2024-02-26T08:09:32;95821.00;;;4.35;91.70
50770;BME280;36740;48.698;11.472;2024-02-26T08:12:17;95810.75;;;4.27;91.33
50770;BME280;36740;48.698;11.472;2024-02-26T08:15:05;95812.13;;;4.21;91.63
50770;BME280;36740;48.698;11.472;2024-02-26T08:17:51;95811.88;;;4.24;91.62
50770;BME280;36740;48.698;11.472;2024-02-26T08:20:36;95810.00;;;4.16;91.96
50770;BME280;36740;48.698;11.472;2024-02-26T08:23:22;95800.28;;;4.12;92.55
50770;BME280;36740;48.698;11.472;2024-02-26T08:26:09;95788.53;;;4.11;92.65
50770;BME280;36740;48.698;11.472;2024-02-26T08:28:56;95784.41;;;4.10;nan
50770;BME280;36740;48.698;11.472;2024-02-26T08:31:43;95774.91;;;4.12;92.98
50770;BME280;36740;48.698;11.472;2024-02-26T08:34:29;95778.66;;;4.35;93.45
50770;BME280;36740;48.698;11.472;2024-02-26T08:37:15;95770.69;;;4.58;92.20
50770;BME280;36740;48.698;11.472;2024-02-26T08:40:01;95775.00;;;4.75;90.78
50770;BME280;36740;48.698;11.472;2024-02-26T08:42:47;95778.13;;;5.05;88.80
50770;BME280;36740;48.698;11.472;2024-02-26T08:45:32;95776.59;;;5.12;86.23
50770;BME280;36740;48.698;11.472;2024-02-26T08:48:18;95775.56;;;5.23;85.05
50770;BME280;36740;48.698;11.472;2024-02-26T08:51:08;95776.88;;;5.09;84.82
50770;BME280;36740;48.698;11.472;2024-02-26T08:53:54;95770.72;;;5.12;84.69
50770;BME280;36740;48.698;11.472;2024-02-26T08:56:39;95779.91;;;5.75;84.43
50770;BME280;36740;48.698;11.472;2024-02-26T08:59:25;95772.44;;;6.34;82.69
50770;BME280;36740;48.698;11.472;2024-02-26T09:02:11;95757.94;;;6.35;80.98
50770;BME280;36740;48.698;11.472;2024-02-26T09:04:57;95747.41;;;6.80;78.59
50770;BME280;36740;48.698;11.472;2024-02-26T09:07:43;95754.75;;;6.92;76.84
50770;BME280;36740;48.698;11.472;2024-02-26T09:10:29;95758.25;;;6.91;76.28
50770;BME280;36740;48.698;11.472;2024-02-26T09:13:15;95770.50;;;6.87;76.03
50770;BME280;36740;48.698;11.472;2024-02-26T09:16:00;95793.47;;;7.04;75.70
50770;BME280;36740;48.698;11.472;2024-02-26T09:18:46;95798.69;;;6.94;74.14
50770;BME280;36740;48.698;11.472;2024-02-26T09:21:33;95806.47;;;6.84;73.98
50770;BME280;36740;48.698;11.472;2024-02-26T09:24:19;95819.69;;;6.88;74.21
50770;BME280;36740;48.698;11.472;2024-02-26T09:27:04;95824.47;;;6.91;74.31
50770;BME280;36740;48.698;11.472;2024-02-26T09:29:50;95832.94;;;7.08;74.04
50770;BME280;36740;48.698;11.472;2024-02-26T09:32:37;95828.81;;;6.98;73.23
50770;BME280;36740;48.698;11.472;2024-02-26T09:35:23;95830.81;;;6.78;73.85
50770;BME280;36740;48.698;11.472;2024-02-26T09:38:09;95834.25;;;6.61;74.74
50770;BME280;36740;48.698;11.472;2024-02-26T09:40:56;95829.63;;;6.56;74.97
50770;BME280;36740;48.698;11.472;2024-02-26T09:43:48;95831.91;;;6.68;75.01
50770;BME280;36740;48.698;11.472;2024-02-26T09:46:34;95813.72;;;6.54;75.16
50770;BME280;36740;48.698;11.472;2024-02-26T09:49:21;95826.59;;;6.53;75.75
50770;BME280;36740;48.698;11.472;2024-02-26T09:52:09;95824.84;;;6.53;76.32
50770;BME280;36740;48.698;11.472;2024-02-26T09:54:55;95824.03;;;6.53;77.11
50770;BME280;36740;48.698;11.472;2024-02-26T09:57:45;95820.75;;;6.26;78.74
50770;BME280;36740;48.698;11.472;2024-02-26T10:00:31;95821.94;;;6.14;79.86
50770;BME280;36740;48.698;11.472;2024-02-26T10:03:22;95818.28;;;6.08;80.97
50770;BME280;36740;48.698;11.472;2024-02-26T10:06:14;95821.25;;;6.30;80.86
50770;BME280;36740;48.698;11.472;2024-02-26T10:09:00;95813.06;;;6.18;80.44
50770;BME280;36740;48.698;11.472;2024-02-26T10:11:49;95815.19;;;6.22;80.31
50770;BME280;36740;48.698;11.472;2024-02-26T10:14:36;95818.09;;;6.36;80.48
50770;BME280;36740;48.698;11.472;2024-02-26T10:17:22;95829.47;;;6.58;79.97
50770;BME280;36740;48.698;11.472;2024-02-26T10:20:15;95824.44;;;6.82;79.62
50770;BME280;36740;48.698;11.472;2024-02-26T10:23:04;95827.78;;;6.75;78.92
50770;BME280;36740;48.698;11.472;2024-02-26T10:25:54;95818.38;;;6.67;79.20
50770;BME280;36740;48.698;11.472;2024-02-26T10:28:45;95825.56;;;6.72;79.97
50770;BME280;36740;48.698;11.472;2024-02-26T10:31:31;95810.72;;;6.67;79.50
50770;BME280;36740;48.698;11.472;2024-02-26T10:34:17;95806.88;;;6.63;80.15
50770;BME280;36740;48.698;11.472;2024-02-26T10:37:05;95810.88;;;6.66;80.49
50770;BME280;36740;48.698;11.472;2024-02-26T10:39:51;95817.13;;;6.79;80.35
50770;BME280;36740;48.698;11.472;2024-02-26T10:42:37;95811.72;;;6.82;81.15
50770;BME280;36740;48.698;11.472;2024-02-26T10:45:23;95806.97;;;6.96;80.03
50770;BME280;36740;48.698;11.472;2024-02-26T10:48:13;95802.56;;;7.14;79.94
50770;BME280;36740;48.698;11.472;2024-02-26T10:51:09;95801.09;;;7.04;78.90
50770;BME280;36740;48.698;11.472;2024-02-26T10:53:58;95809.88;;;7.26;78.10
50770;BME280;36740;48.698;11.472;2024-02-26T10:56:46;95810.53;;;7.69;76.99
50770;BME280;36740;48.698;11.472;2024-02-26T10:59:35;95798.81;;;7.99;75.04
50770;BME280;36740;48.698;11.472;2024-02-26T11:02:22;95800.78;;;8.53;73.16
50770;BME280;36740;48.698;11.472;2024-02-26T11:05:08;95788.03;;;8.76;71.48
50770;BME280;36740;48.698;11.472;2024-02-26T11:07:56;95791.34;;;9.08;70.03
50770;BME280;36740;48.698;11.472;2024-02-26T11:10:46;95802.91;;;9.65;68.31
50770;BME280;36740;48.698;11.472;2024-02-26T11:13:33;95809.59;;;10.19;67.24
50770;BME280;36740;48.698;11.472;2024-02-26T11:16:23;95781.22;;;10.50;64.63
50770;BME280;36740;48.698;11.472;2024-02-26T11:19:09;95779.81;;;10.99;63.25
50770;BME280;36740;48.698;11.472;2024-02-26T11:21:56;95763.63;;;10.99;60.90
50770;BME280;36740;48.698;11.472;2024-02-26T11:24:42;95804.31;;;10.87;61.32
50770;BME280;36740;48.698;11.472;2024-02-26T11:27:31;95796.19;;;10.47;62.87
50770;BME280;36740;48.698;11.472;2024-02-26T11:30:19;95798.75;;;10.32;62.77
50770;BME280;36740;48.698;11.472;2024-02-26T11:33:08;95789.53;;;10.38;61.94
50770;BME280;36740;48.698;11.472;2024-02-26T11:35:55;95803.78;;;10.55;62.93
50770;BME280;36740;48.698;11.472;2024-02-26T11:38:41;95804.81;;;10.46;62.01
50770;BME280;36740;48.698;11.472;2024-02-26T11:41:27;95817.25;;;11.37;60.77
50770;BME280;36740;48.698;11.472;2024-02-26T11:44:13;95794.41;;;10.99;60.49
50770;BME280;36740;48.698;11.472;2024-02-26T11:46:59;95802.88;;;11.92;58.78
50770;BME280;36740;48.698;11.472;2024-02-26T11:49:47;95802.94;;;12.82;56.04
50770;BME280;36740;48.698;11.472;2024-02-26T11:52:33;95798.63;;;13.09;54.78
50770;BME280;36740;48.698;11.472;2024-02-26T11:55:31;95805.44;;;13.77;53.24
50770;BME280;36740;48.698;11.472;2024-02-26T11:58:17;95822.13;;;16.93;47.38
50770;BME280;36740;48.698;11.472;2024-02-26T12:01:03;95774.66;;;17.54;43.34
50770;BME280;36740;48.698;11.472;2024-02-26T12:03:49;95753.19;;;16.32;45.28
50770;BME280;36740;48.698;11.472;2024-02-26T12:09:40;95749.72;;;14.03;48.98
50770;BME280;36740;48.698;11.472;2024-02-26T12:12:27;95745.06;;;13.47;50.58
50770;BME280;36740;48.698;11.472;2024-02-26T12:15:15;95766.59;;;13.86;51.02
50770;BME280;36740;48.698;11.472;2024-02-26T12:18:02;95745.06;;;13.53;50.11
50770;BME280;36740;48.698;11.472;2024-02-26T12:21:01;95767.19;;;13.94;49.51
50770;BME280;36740;48.698;11.472;2024-02-26T12:23:47;95774.75;;;15.57;47.20
50770;BME280;36740;48.698;11.472;2024-02-26T12:26:34;95792.72;;;19.46;39.79
50770;BME280;36740;48.698;11.472;2024-02-26T12:29:20;95778.91;;;20.36;37.16
50770;BME280;36740;48.698;11.472;2024-02-26T12:32:08;95747.19;;;15.51;43.66
50770;BME280;36740;48.698;11.472;2024-02-26T12:34:58;95760.50;;;13.60;48.77
50770;BME280;36740;48.698;11.472;2024-02-26T12:37:53;95767.75;;;12.96;50.57
50770;BME280;36740;48.698;11.472;2024-02-26T12:40:39;95767.47;;;12.64;51.61
50770;BME280;36740;48.698;11.472;2024-02-26T12:43:28;95772.75;;;12.43;52.80
50770;BME280;36740;48.698;11.472;2024-02-26T12:45:54;95781.47;;;12.55;53.36
50770;BME280;36740;48.698;11.472;2024-02-26T12:48:20;95779.22;;;12.94;52.37
50770;BME280;36740;48.698;11.472;2024-02-26T12:50:46;95798.13;;;13.54;52.45
50770;BME280;36740;48.698;11.472;2024-02-26T12:53:14;95795.13;;;13.84;50.70
50770;BME280;36740;48.698;11.472;2024-02-26T12:55:42;95804.31;;;14.65;48.46
50770;BME280;36740;48.698;11.472;2024-02-26T12:58:09;95795.59;;;14.46;49.53
50770;BME280;36740;48.698;11.472;2024-02-26T13:00:35;95787.94;;;14.26;49.39
50770;BME280;36740;48.698;11.472;2024-02-26T13:03:04;95789.31;;;15.19;47.23
50770;BME280;36740;48.698;11.472;2024-02-26T13:05:30;95764.59;;;14.66;47.90
50770;BME280;36740;48.698;11.472;2024-02-26T13:07:56;95766.50;;;14.32;48.80
50770;BME280;36740;48.698;11.472;2024-02-26T13:10:21;95763.06;;;13.80;49.37
50770;BME280;36740;48.698;11.472;2024-02-26T13:12:48;95751.28;;;12.77;51.92
50770;BME280;36740;48.698;11.472;2024-02-26T13:15:20;95760.59;;;12.23;53.96
50770;BME280;36740;48.698;11.472;2024-02-26T13:17:47;95763.38;;;11.65;54.92
50770;BME280;36740;48.698;11.472;2024-02-26T13:20:13;95773.75;;;11.50;56.61
50770;BME280;36740;48.698;11.472;2024-02-26T13:22:40;95781.16;;;11.38;57.32
50770;BME280;36740;48.698;11.472;2024-02-26T13:25:06;95787.31;;;11.22;57.47
50770;BME280;36740;48.698;11.472;2024-02-26T13:27:34;95798.25;;;11.31;58.26
50770;BME280;36740;48.698;11.472;2024-02-26T13:30:09;95804.19;;;11.82;57.61
50770;BME280;36740;48.698;11.472;2024-02-26T13:32:37;95801.88;;;12.22;56.85
50770;BME280;36740;48.698;11.472;2024-02-26T13:35:10;95806.34;;;12.06;56.60
50770;BME280;36740;48.698;11.472;2024-02-26T13:37:36;95816.63;;;12.06;57.00
50770;BME280;36740;48.698;11.472;2024-02-26T13:40:09;95808.84;;;11.93;55.98
50770;BME280;36740;48.698;11.472;2024-02-26T13:42:36;95814.69;;;11.87;56.76
50770;BME280;36740;48.698;11.472;2024-02-26T13:45:02;95812.75;;;11.67;57.70
50770;BME280;36740;48.698;11.472;2024-02-26T13:47:30;95800.78;;;11.53;57.58
50770;BME280;36740;48.698;11.472;2024-02-26T13:49:56;95817.25;;;11.87;57.50
50770;BME280;36740;48.698;11.472;2024-02-26T13:52:22;95824.84;;;12.30;56.80
50770;BME280;36740;48.698;11.472;2024-02-26T13:54:47;95817.28;;;12.57;55.38
50770;BME280;36740;48.698;11.472;2024-02-26T13:57:13;95809.94;;;12.53;55.55
50770;BME280;36740;48.698;11.472;2024-02-26T13:59:41;95809.13;;;12.46;55.45
50770;BME280;36740;48.698;11.472;2024-02-26T14:02:08;95806.16;;;12.08;56.42
50770;BME280;36740;48.698;11.472;2024-02-26T14:04:34;95808.44;;;11.96;57.35
50770;BME280;36740;48.698;11.472;2024-02-26T14:06:59;95807.56;;;11.60;57.28
50770;BME280;36740;48.698;11.472;2024-02-26T14:09:25;95817.75;;;11.75;57.33
50770;BME280;36740;48.698;11.472;2024-02-26T14:11:51;95824.78;;;11.88;57.32
50770;BME280;36740;48.698;11.472;2024-02-26T14:14:16;95819.63;;;11.60;57.42
50770;BME280;36740;48.698;11.472;2024-02-26T14:16:42;95826.88;;;11.35;58.02
50770;BME280;36740;48.698;11.472;2024-02-26T14:19:07;95836.38;;;11.34;58.67
50770;BME280;36740;48.698;11.472;2024-02-26T14:21:33;95844.78;;;11.28;58.92
50770;BME280;36740;48.698;11.472;2024-02-26T14:24:00;95838.88;;;11.28;58.92